TimePDT,TemperatureF,Dew PointF,Humidity,Sea Level PressureIn,VisibilityMPH,Wind Direction,Wind SpeedMPH,Gust SpeedMPH,PrecipitationIn,Events,Conditions,WindDirDegrees,DateUTC
12:53 AM,60.1,54.0,80,29.96,10.0,East,4.6,-,N/A,,Clear,80,2013-04-21 07:53:00
1:53 AM,60.1,54.0,80,29.96,10.0,East,4.6,-,N/A,,Clear,90,2013-04-21 08:53:00
2:53 AM,59.0,54.0,83,29.95,10.0,East,3.5,-,N/A,,Clear,100,2013-04-21 09:53:00
3:53 AM,57.9,54.0,87,29.95,9.0,East,4.6,-,N/A,,Clear,100,2013-04-21 10:53:00
4:53 AM,57.0,54.0,89,29.95,7.0,SE,4.6,-,N/A,,Partly Cloudy,130,2013-04-21 11:53:00
5:12 AM,57.2,55.4,94,29.95,1.5,ESE,5.8,-,N/A,,Mostly Cloudy,120,2013-04-21 12:12:00
5:17 AM,57.2,57.2,100,29.96,0.5,East,5.8,-,N/A,Fog,Fog,100,2013-04-21 12:17:00
5:41 AM,57.2,57.2,100,29.96,1.0,Variable,5.8,-,N/A,Fog,Patches of Fog,0,2013-04-21 12:41:00
5:53 AM,57.9,55.9,93,29.96,1.5,ESE,5.8,-,N/A,Fog,Patches of Fog,120,2013-04-21 12:53:00
6:15 AM,57.2,55.4,94,29.97,2.0,SE,4.6,-,N/A,Fog,Patches of Fog,130,2013-04-21 13:15:00
6:47 AM,57.2,55.4,94,29.97,1.8,East,4.6,-,N/A,Fog,Patches of Fog,90,2013-04-21 13:47:00
6:53 AM,57.9,55.9,93,29.97,1.8,East,5.8,-,N/A,Fog,Patches of Fog,80,2013-04-21 13:53:00
7:20 AM,57.2,55.4,94,29.99,1.0,ESE,3.5,-,N/A,,Scattered Clouds,110,2013-04-21 14:20:00
7:45 AM,57.2,55.4,94,29.99,2.0,SE,4.6,-,N/A,,Partly Cloudy,140,2013-04-21 14:45:00
7:53 AM,59.0,57.0,93,29.99,2.5,SE,4.6,-,N/A,,Partly Cloudy,130,2013-04-21 14:53:00
7:59 AM,59.0,55.4,88,30.00,3.0,SE,4.6,-,N/A,,Partly Cloudy,130,2013-04-21 14:59:00
8:53 AM,64.0,55.9,75,29.99,9.0,ESE,3.5,-,N/A,,Partly Cloudy,110,2013-04-21 15:53:00
9:53 AM,70.0,51.1,51,30.00,10.0,Variable,4.6,-,N/A,,Partly Cloudy,0,2013-04-21 16:53:00
10:53 AM,68.0,55.9,65,30.01,9.0,West,10.4,-,N/A,,Scattered Clouds,270,2013-04-21 17:53:00
11:53 AM,66.9,55.9,68,30.01,9.0,West,10.4,-,N/A,,Scattered Clouds,270,2013-04-21 18:53:00
12:53 PM,68.0,55.0,63,30.00,9.0,West,9.2,-,N/A,,Scattered Clouds,270,2013-04-21 19:53:00
1:53 PM,70.0,55.0,59,29.98,10.0,West,9.2,-,N/A,,Partly Cloudy,260,2013-04-21 20:53:00
2:53 PM,70.0,53.1,55,29.97,10.0,West,9.2,-,N/A,,Partly Cloudy,260,2013-04-21 21:53:00
3:53 PM,69.1,53.1,57,29.95,10.0,WSW,11.5,-,N/A,,Partly Cloudy,250,2013-04-21 22:53:00
4:53 PM,66.0,55.9,70,29.95,10.0,West,9.2,-,N/A,,Partly Cloudy,260,2013-04-21 23:53:00
5:53 PM,64.0,57.0,78,29.96,10.0,West,10.4,-,N/A,,Partly Cloudy,260,2013-04-22 00:53:00
6:45 PM,62.6,57.2,82,29.96,8.0,WSW,10.4,-,N/A,,Mostly Cloudy,250,2013-04-22 01:45:00
6:53 PM,61.0,55.9,83,29.96,8.0,WSW,9.2,-,N/A,,Mostly Cloudy,250,2013-04-22 01:53:00
7:53 PM,61.0,55.9,83,29.98,8.0,West,9.2,-,N/A,,Overcast,280,2013-04-22 02:53:00
8:38 PM,60.8,55.4,82,30.00,8.0,West,8.1,-,N/A,,Overcast,280,2013-04-22 03:38:00
8:53 PM,60.1,55.0,83,30.00,8.0,WSW,6.9,-,N/A,,Overcast,240,2013-04-22 03:53:00
9:53 PM,59.0,55.0,87,30.01,8.0,Calm,Calm,-,N/A,,Overcast,0,2013-04-22 04:53:00
10:53 PM,61.0,55.0,81,30.01,8.0,Calm,Calm,-,N/A,,Overcast,0,2013-04-22 05:53:00
11:53 PM,61.0,55.0,81,30.01,8.0,Calm,Calm,-,N/A,,Overcast,0,2013-04-22 06:53:00